Time;durP1;ratioP1;P1;durP2;ratioP2;P2;SDS_P1;SDS_P2;PMS_P1;PMS_P2;Temp;Humidity;BMP_temperature;BMP_pressure;BME280_temperature;BME280_humidity;BME280_pressure;Samples;Min_cycle;Max_cycle;Signal;HPM_P1;HPM_P2
2022/09/10 00:01:21;;;;;;;25.67;13.60;;;14.50;99.90;;;;;;4994700;28;20099;-72
2022/09/10 00:03:48;;;;;;;22.85;14.93;;;14.50;99.90;;;;;;5010734;28;20133;-72
2022/09/10 00:06:15;;;;;;;23.38;15.40;;;14.50;99.90;;;;;;5010594;28;20100;-72
2022/09/10 00:08:41;;;;;;;26.27;15.50;;;14.50;99.90;;;;;;5010208;28;20046;-73
2022/09/10 00:11:08;;;;;;;25.85;15.20;;;14.50;99.90;;;;;;5014192;28;20085;-72
2022/09/10 00:13:38;;;;;;;27.35;16.42;;;14.60;99.90;;;;;;5005952;28;20088;-73
2022/09/10 00:16:07;;;;;;;25.77;16.13;;;14.60;99.90;;;;;;5031525;28;20390;-72
2022/09/10 00:18:34;;;;;;;27.88;17.08;;;14.50;99.90;;;;;;5011919;28;20073;-71
2022/09/10 00:21:03;;;;;;;28.55;16.70;;;14.60;99.90;;;;;;4995839;28;20046;-72
2022/09/10 00:23:29;;;;;;;28.83;16.85;;;14.60;99.90;;;;;;5012462;28;20045;-72
2022/09/10 00:25:56;;;;;;;29.98;17.27;;;14.50;99.90;;;;;;4997460;28;20052;-72
2022/09/10 00:28:24;;;;;;;29.85;17.33;;;14.60;99.90;;;;;;5007013;28;20483;-73
2022/09/10 00:30:55;;;;;;;28.30;17.25;;;14.50;99.90;;;;;;4996135;28;20046;-71
2022/09/10 00:33:22;;;;;;;28.23;17.85;;;14.50;99.90;;;;;;4995980;28;20061;-72
2022/09/10 00:35:49;;;;;;;28.10;17.30;;;14.60;99.90;;;;;;5010757;28;20510;-72
2022/09/10 00:38:18;;;;;;;28.85;18.10;;;14.60;99.90;;;;;;5015032;28;20081;-72
2022/09/10 00:40:45;;;;;;;28.35;17.63;;;14.60;99.90;;;;;;5015359;28;20038;-72
2022/09/10 00:43:14;;;;;;;32.53;18.48;;;14.70;99.90;;;;;;5015202;28;20042;-72
2022/09/10 00:45:53;;;;;;;28.85;17.13;;;14.70;99.90;;;;;;5013256;28;20386;-72
2022/09/10 00:48:28;;;;;;;29.00;18.13;;;14.70;99.90;;;;;;5015325;28;20048;-72
2022/09/10 00:50:57;;;;;;;31.60;19.17;;;14.70;99.90;;;;;;4997971;28;20054;-71
2022/09/10 00:53:26;;;;;;;29.77;19.17;;;14.70;99.90;;;;;;5014743;28;20041;-72
2022/09/10 00:55:59;;;;;;;28.02;18.15;;;14.80;99.90;;;;;;5010207;28;20042;-72
2022/09/10 00:58:27;;;;;;;27.98;18.25;;;14.80;99.90;;;;;;5030969;28;20069;-72
2022/09/10 01:00:58;;;;;;;27.92;18.60;;;14.70;99.90;;;;;;5013283;28;20079;-72
2022/09/10 01:03:28;;;;;;;32.95;19.05;;;14.80;99.90;;;;;;5015073;28;20100;-72
2022/09/10 01:05:55;;;;;;;32.53;19.52;;;14.80;99.90;;;;;;5013743;28;20510;-72
2022/09/10 01:08:22;;;;;;;32.03;19.23;;;14.80;99.90;;;;;;4997477;28;20371;-72
2022/09/10 01:11:25;;;;;;;32.50;19.27;;;14.70;99.90;;;;;;5014080;28;20097;-72
2022/09/10 01:14:39;;;;;;;33.22;20.00;;;14.80;99.90;;;;;;5014787;28;20050;-72
2022/09/10 01:17:30;;;;;;;31.83;19.67;;;14.80;99.90;;;;;;4998688;28;20144;-72
2022/09/10 01:20:18;;;;;;;36.08;20.75;;;14.80;99.90;;;;;;5011709;28;20386;-72
2022/09/10 01:22:56;;;;;;;36.38;20.48;;;14.80;99.90;;;;;;5010391;28;20060;-72
2022/09/10 01:25:44;;;;;;;30.55;19.42;;;14.70;99.90;;;;;;5014245;28;20450;-72
2022/09/10 01:28:24;;;;;;;28.67;19.45;;;14.80;99.90;;;;;;5014506;28;20176;-72
2022/09/10 01:30:56;;;;;;;29.30;19.27;;;14.80;99.90;;;;;;4996743;28;20124;-72
2022/09/10 01:33:29;;;;;;;34.72;19.92;;;14.80;99.90;;;;;;5014391;28;20068;-72
2022/09/10 01:36:02;;;;;;;34.22;20.38;;;14.80;99.90;;;;;;5014369;28;20045;-72
2022/09/10 01:38:33;;;;;;;34.65;20.80;;;14.90;99.90;;;;;;5013824;28;20104;-71
2022/09/10 01:40:59;;;;;;;35.00;21.20;;;14.80;99.90;;;;;;5013790;28;20045;-72
2022/09/10 01:43:25;;;;;;;32.00;19.88;;;14.90;99.90;;;;;;5014263;28;20043;-72
2022/09/10 01:45:51;;;;;;;36.72;21.25;;;14.80;99.90;;;;;;5012720;28;20537;-72
2022/09/10 01:48:35;;;;;;;37.33;21.48;;;14.90;99.90;;;;;;5013960;28;20537;-72
2022/09/10 01:51:37;;;;;;;34.97;21.38;;;14.80;99.90;;;;;;4992987;28;20046;-72
2022/09/10 01:54:10;;;;;;;35.17;21.52;;;14.90;99.90;;;;;;5001123;28;20421;-72
2022/09/10 01:57:04;;;;;;;37.70;22.48;;;14.90;99.90;;;;;;4993460;28;20551;-73
2022/09/10 01:59:39;;;;;;;30.63;19.67;;;14.90;99.90;;;;;;5004643;28;20498;-73
2022/09/10 02:02:19;;;;;;;32.78;21.35;;;14.90;99.90;;;;;;5013903;28;20437;-72
2022/09/10 02:04:49;;;;;;;32.53;21.55;;;14.90;99.90;;;;;;4994322;28;20060;-73
2022/09/10 02:07:21;;;;;;;37.38;23.08;;;14.90;99.90;;;;;;4997861;28;20356;-72
2022/09/10 02:09:47;;;;;;;38.97;23.10;;;14.90;99.90;;;;;;5013470;28;20046;-73
2022/09/10 02:12:19;;;;;;;36.85;21.85;;;14.90;99.90;;;;;;4997530;28;20045;-72
2022/09/10 02:14:50;;;;;;;40.53;23.08;;;15.00;99.90;;;;;;4997745;28;20046;-72
2022/09/10 02:17:17;;;;;;;36.20;22.80;;;15.00;99.90;;;;;;4990479;28;20042;-72
2022/09/10 02:19:46;;;;;;;35.03;21.75;;;15.00;99.90;;;;;;5002938;28;20082;-73
2022/09/10 02:22:14;;;;;;;31.27;20.85;;;15.00;99.90;;;;;;4993907;28;20069;-72
2022/09/10 02:24:43;;;;;;;33.72;21.00;;;15.00;99.90;;;;;;4994411;28;20080;-73
2022/09/10 02:27:10;;;;;;;40.13;22.65;;;15.00;99.90;;;;;;4997179;28;20467;-72
2022/09/10 02:29:37;;;;;;;34.45;21.27;;;15.00;99.90;;;;;;5011216;28;20069;-73
2022/09/10 02:32:05;;;;;;;39.40;22.35;;;15.00;99.90;;;;;;4996212;28;20095;-72
2022/09/10 02:34:31;;;;;;;38.20;22.63;;;15.00;99.90;;;;;;4996041;28;20545;-72
2022/09/10 02:36:57;;;;;;;43.45;24.40;;;15.10;99.90;;;;;;5011774;28;20049;-72
2022/09/10 02:39:24;;;;;;;43.45;24.25;;;15.10;99.90;;;;;;5004357;28;20099;-72
2022/09/10 02:41:50;;;;;;;41.38;24.38;;;15.10;99.90;;;;;;5010204;28;20041;-72
2022/09/10 02:44:16;;;;;;;40.15;24.92;;;15.10;99.90;;;;;;5011244;28;20034;-72
2022/09/10 02:46:43;;;;;;;42.53;24.77;;;15.10;99.90;;;;;;5010503;28;20049;-72
2022/09/10 02:49:09;;;;;;;40.72;24.20;;;15.10;99.90;;;;;;4992260;28;20038;-71
2022/09/10 02:51:40;;;;;;;39.97;23.13;;;15.10;99.90;;;;;;4992268;28;20045;-72
2022/09/10 02:54:06;;;;;;;39.25;23.52;;;15.10;99.90;;;;;;5009567;28;20037;-72
2022/09/10 02:56:33;;;;;;;43.47;24.30;;;15.10;99.90;;;;;;5011624;28;20370;-72
2022/09/10 02:58:59;;;;;;;40.72;24.17;;;15.20;99.90;;;;;;4993403;28;20383;-72
2022/09/10 03:01:25;;;;;;;41.50;23.85;;;15.10;99.90;;;;;;4978893;28;20085;-72
2022/09/10 03:03:53;;;;;;;39.70;23.83;;;15.20;99.90;;;;;;5010695;28;20491;-72
2022/09/10 03:06:24;;;;;;;40.90;24.55;;;15.20;99.90;;;;;;5012034;28;20112;-72
2022/09/10 03:08:50;;;;;;;40.95;24.17;;;15.20;99.90;;;;;;5010944;28;20053;-72
2022/09/10 03:11:17;;;;;;;40.30;23.95;;;15.20;99.90;;;;;;4994358;28;20061;-72
2022/09/10 03:13:44;;;;;;;43.45;25.00;;;15.20;99.90;;;;;;5012533;28;20128;-72
2022/09/10 03:16:14;;;;;;;46.53;25.52;;;15.20;99.90;;;;;;5010583;28;20479;-72
2022/09/10 03:18:41;;;;;;;47.63;26.08;;;15.20;99.90;;;;;;5024241;28;20430;-72
2022/09/10 03:21:19;;;;;;;42.90;25.27;;;15.20;99.90;;;;;;4994977;28;20045;-71
2022/09/10 03:23:50;;;;;;;46.00;26.48;;;15.20;99.90;;;;;;4995580;28;20046;-72
2022/09/10 03:26:17;;;;;;;42.35;24.42;;;15.20;99.90;;;;;;4994811;28;20033;-72
2022/09/10 03:28:44;;;;;;;49.55;25.63;;;15.20;99.90;;;;;;5010024;28;20077;-72
2022/09/10 03:31:12;;;;;;;44.47;24.67;;;15.30;99.90;;;;;;4993803;28;20046;-72
2022/09/10 03:33:39;;;;;;;48.88;26.15;;;15.30;99.90;;;;;;4994706;28;20057;-72
2022/09/10 03:36:07;;;;;;;44.67;26.05;;;15.30;99.90;;;;;;4995280;28;20048;-72
2022/09/10 03:38:33;;;;;;;41.65;24.40;;;15.30;99.90;;;;;;5009101;28;20049;-72
2022/09/10 03:41:01;;;;;;;41.45;25.02;;;15.30;99.90;;;;;;5009853;28;20049;-72
2022/09/10 03:43:27;;;;;;;44.60;25.40;;;15.30;99.90;;;;;;5025402;28;20471;-72
2022/09/10 03:45:53;;;;;;;37.85;24.23;;;15.30;99.90;;;;;;4978561;28;20092;-72
2022/09/10 03:48:20;;;;;;;46.80;26.05;;;15.30;99.90;;;;;;5006486;28;20054;-72
2022/09/10 03:50:48;;;;;;;41.92;24.08;;;15.30;99.90;;;;;;4999356;28;20426;-72
2022/09/10 03:53:16;;;;;;;41.45;24.48;;;15.30;99.90;;;;;;4978937;28;20111;-71
2022/09/10 03:55:46;;;;;;;41.17;24.42;;;15.30;99.90;;;;;;5012172;28;20383;-72
2022/09/10 03:58:13;;;;;;;43.58;24.10;;;15.30;99.90;;;;;;5006427;28;20077;-73
2022/09/10 04:00:39;;;;;;;39.55;24.10;;;15.40;99.90;;;;;;4976239;28;20153;-72
2022/09/10 04:03:05;;;;;;;42.72;24.75;;;15.30;99.90;;;;;;4982371;28;20050;-72
2022/09/10 04:05:31;;;;;;;43.08;24.90;;;15.40;99.90;;;;;;4992348;28;20089;-72
2022/09/10 04:07:58;;;;;;;44.72;24.80;;;15.40;99.90;;;;;;5005641;28;20368;-72
2022/09/10 04:10:28;;;;;;;41.38;24.30;;;15.30;99.90;;;;;;5011688;28;20495;-72
2022/09/10 04:12:54;;;;;;;39.58;24.25;;;15.40;99.90;;;;;;4994842;28;20054;-72
2022/09/10 04:15:20;;;;;;;44.83;24.67;;;15.40;99.90;;;;;;4995417;28;20065;-73
2022/09/10 04:17:50;;;;;;;41.35;24.90;;;15.40;99.90;;;;;;5005194;28;20038;-72
2022/09/10 04:20:24;;;;;;;46.05;24.58;;;15.40;99.90;;;;;;4992789;28;20045;-72
2022/09/10 04:22:53;;;;;;;43.88;23.08;;;15.40;99.90;;;;;;4993643;28;20045;-72
2022/09/10 04:25:20;;;;;;;42.40;23.88;;;15.40;99.90;;;;;;4994802;28;20053;-73
2022/09/10 04:27:46;;;;;;;39.80;22.90;;;15.40;99.90;;;;;;5011693;28;20052;-72
2022/09/10 04:30:13;;;;;;;41.35;24.77;;;15.40;99.90;;;;;;4987527;28;20054;-72
2022/09/10 04:32:39;;;;;;;45.83;24.92;;;15.40;99.90;;;;;;5011871;28;20049;-72
2022/09/10 04:35:05;;;;;;;44.38;24.17;;;15.50;99.90;;;;;;4993993;28;20050;-72
2022/09/10 04:37:31;;;;;;;40.55;24.58;;;15.50;99.90;;;;;;5011406;28;20037;-72
2022/09/10 04:39:57;;;;;;;39.58;24.08;;;15.50;99.90;;;;;;4990065;28;20363;-72
2022/09/10 04:42:23;;;;;;;43.90;24.75;;;15.50;99.90;;;;;;4993874;28;20044;-71
2022/09/10 04:44:50;;;;;;;35.60;22.85;;;15.50;99.90;;;;;;5010879;28;20041;-71
2022/09/10 04:47:16;;;;;;;38.28;24.00;;;15.50;99.90;;;;;;4979288;28;20041;-72
2022/09/10 04:49:42;;;;;;;36.35;22.85;;;15.50;99.90;;;;;;4974662;28;20470;-72
2022/09/10 04:52:10;;;;;;;38.85;22.98;;;15.50;99.90;;;;;;5009738;28;20042;-72
2022/09/10 04:54:37;;;;;;;41.40;24.15;;;15.50;99.90;;;;;;4976329;28;20096;-72
2022/09/10 04:57:06;;;;;;;40.05;23.48;;;15.60;99.90;;;;;;5012296;28;20475;-72
2022/09/10 04:59:32;;;;;;;35.38;23.42;;;15.50;99.90;;;;;;5014169;28;20490;-72
2022/09/10 05:01:58;;;;;;;37.20;22.70;;;15.50;99.90;;;;;;5014379;28;20065;-72
2022/09/10 05:04:24;;;;;;;40.05;23.23;;;15.50;99.90;;;;;;4996955;28;20129;-72
2022/09/10 05:06:50;;;;;;;36.85;22.83;;;15.50;99.90;;;;;;5011938;28;20042;-73
2022/09/10 05:09:17;;;;;;;39.30;23.63;;;15.50;99.90;;;;;;5011155;28;20081;-72
2022/09/10 05:11:43;;;;;;;43.85;23.85;;;15.50;99.90;;;;;;4997041;28;20081;-72
2022/09/10 05:14:09;;;;;;;38.22;23.05;;;15.50;99.90;;;;;;4997757;28;20133;-72
2022/09/10 05:16:37;;;;;;;38.53;23.60;;;15.50;99.90;;;;;;4998337;28;20558;-72
2022/09/10 05:19:03;;;;;;;40.92;23.20;;;15.50;99.90;;;;;;5013641;28;20041;-71
2022/09/10 05:21:30;;;;;;;35.10;22.60;;;15.60;99.90;;;;;;5013338;28;20050;-72
2022/09/10 05:23:56;;;;;;;39.45;22.40;;;15.60;99.90;;;;;;5013995;28;20108;-73
2022/09/10 05:26:22;;;;;;;40.05;22.80;;;15.60;99.90;;;;;;5013361;28;20034;-72
2022/09/10 05:28:50;;;;;;;34.53;21.77;;;15.60;99.90;;;;;;5013694;28;20049;-72
2022/09/10 05:31:16;;;;;;;37.65;23.45;;;15.60;99.90;;;;;;5014196;28;20052;-71
2022/09/10 05:33:42;;;;;;;43.85;24.75;;;15.60;99.90;;;;;;4981460;28;20107;-72
2022/09/10 05:36:08;;;;;;;39.92;22.42;;;15.60;99.90;;;;;;4996307;28;20061;-72
2022/09/10 05:38:34;;;;;;;36.53;22.63;;;15.60;99.90;;;;;;4996131;28;20498;-72
2022/09/10 05:41:02;;;;;;;36.97;22.38;;;15.60;99.90;;;;;;5014195;28;20050;-72
2022/09/10 05:43:28;;;;;;;37.15;21.98;;;15.70;99.90;;;;;;5013576;28;20117;-72
2022/09/10 05:45:54;;;;;;;44.00;23.17;;;15.70;99.90;;;;;;4997007;28;20124;-72
2022/09/10 05:48:20;;;;;;;38.15;22.30;;;15.70;99.90;;;;;;4997227;28;20057;-71
2022/09/10 05:50:52;;;;;;;40.45;22.52;;;15.70;99.90;;;;;;4997203;28;20045;-72
2022/09/10 05:53:18;;;;;;;39.05;22.17;;;15.80;99.90;;;;;;5012693;28;20077;-73
2022/09/10 05:55:44;;;;;;;37.40;22.23;;;15.80;99.90;;;;;;5013339;28;20076;-73
2022/09/10 05:58:12;;;;;;;43.75;23.70;;;15.80;99.90;;;;;;5013067;28;20600;-73
2022/09/10 06:00:44;;;;;;;38.75;23.08;;;15.80;99.90;;;;;;5012616;28;20045;-72
2022/09/10 06:03:10;;;;;;;38.78;21.42;;;15.90;99.90;;;;;;5012898;28;20042;-73
2022/09/10 06:05:36;;;;;;;39.15;22.55;;;15.90;99.90;;;;;;5025935;28;20485;-72
2022/09/10 06:08:02;;;;;;;37.05;21.77;;;15.90;99.90;;;;;;5011729;28;20042;-72
2022/09/10 06:10:28;;;;;;;36.40;21.65;;;15.90;99.90;;;;;;4996250;28;20502;-72
2022/09/10 06:12:54;;;;;;;36.80;22.92;;;16.00;99.90;;;;;;4980439;28;20495;-72
2022/09/10 06:15:20;;;;;;;40.30;22.33;;;16.00;99.90;;;;;;5012657;28;20088;-72
2022/09/10 06:17:47;;;;;;;31.55;20.73;;;16.10;99.90;;;;;;4996618;28;20463;-71
2022/09/10 06:20:13;;;;;;;40.63;22.58;;;16.10;99.90;;;;;;5012766;28;20538;-72
2022/09/10 06:22:39;;;;;;;38.72;22.13;;;16.10;99.90;;;;;;5012858;28;20042;-72
2022/09/10 06:25:06;;;;;;;33.90;22.02;;;16.00;99.90;;;;;;5013007;28;20494;-72
2022/09/10 06:27:32;;;;;;;38.22;21.75;;;16.10;99.90;;;;;;4995183;28;20038;-73
2022/09/10 06:29:58;;;;;;;34.72;20.83;;;16.00;99.90;;;;;;4996436;28;20144;-72
2022/09/10 06:32:24;;;;;;;37.83;21.00;;;16.00;99.90;;;;;;5012256;28;20133;-73
2022/09/10 06:34:50;;;;;;;37.42;20.73;;;16.00;99.90;;;;;;5011932;28;20065;-72
2022/09/10 06:37:17;;;;;;;36.80;22.08;;;16.00;99.90;;;;;;5008765;28;20073;-72
2022/09/10 06:39:43;;;;;;;38.13;21.08;;;16.00;99.90;;;;;;4991726;28;20042;-72
2022/09/10 06:42:09;;;;;;;38.30;22.10;;;16.00;99.90;;;;;;4995243;28;20493;-72
2022/09/10 06:44:35;;;;;;;36.47;21.33;;;16.10;99.90;;;;;;5011292;28;20485;-72
2022/09/10 06:47:01;;;;;;;39.38;22.10;;;16.10;99.90;;;;;;4980412;28;20053;-72
2022/09/10 06:49:28;;;;;;;38.92;22.10;;;16.10;99.90;;;;;;4996516;28;20099;-72
2022/09/10 06:51:55;;;;;;;37.70;20.40;;;16.10;99.90;;;;;;5012826;28;20050;-72
2022/09/10 06:54:21;;;;;;;34.90;19.95;;;16.10;99.90;;;;;;4980646;28;20414;-72
2022/09/10 06:56:49;;;;;;;36.95;20.63;;;16.10;99.90;;;;;;5003996;28;20042;-72
2022/09/10 06:59:17;;;;;;;38.70;20.83;;;16.20;99.90;;;;;;5007020;28;20046;-72
2022/09/10 07:01:43;;;;;;;36.83;21.33;;;16.20;99.90;;;;;;4996462;28;20046;-72
2022/09/10 07:04:09;;;;;;;38.45;22.38;;;16.20;99.90;;;;;;5012937;28;20049;-72
2022/09/10 07:06:36;;;;;;;40.25;21.40;;;16.20;99.90;;;;;;5027853;28;20513;-73
2022/09/10 07:09:03;;;;;;;38.80;21.50;;;16.30;99.90;;;;;;5011123;28;20997;-72
2022/09/10 07:11:30;;;;;;;33.33;19.98;;;16.30;99.90;;;;;;5012658;28;20088;-72
2022/09/10 07:13:58;;;;;;;36.50;20.52;;;16.30;99.90;;;;;;5012067;28;20446;-72
2022/09/10 07:16:26;;;;;;;39.50;20.10;;;16.30;99.90;;;;;;5012660;28;20359;-72
2022/09/10 07:18:54;;;;;;;37.42;20.40;;;16.40;99.90;;;;;;5011160;28;20445;-72
2022/09/10 07:21:22;;;;;;;36.33;19.90;;;16.40;99.90;;;;;;5011806;28;20124;-72
2022/09/10 07:23:50;;;;;;;33.65;19.38;;;16.40;99.90;;;;;;4991135;28;20482;-72
2022/09/10 07:26:18;;;;;;;36.03;21.33;;;16.40;99.90;;;;;;5006231;28;20540;-73
2022/09/10 07:28:45;;;;;;;33.45;20.73;;;16.50;99.90;;;;;;4996016;28;20053;-72
2022/09/10 07:31:16;;;;;;;33.05;19.88;;;16.60;99.90;;;;;;4995582;28;20088;-73
2022/09/10 07:33:42;;;;;;;38.10;20.52;;;16.50;99.90;;;;;;4993289;28;20043;-72
2022/09/10 07:36:11;;;;;;;33.85;21.02;;;16.50;99.90;;;;;;4991972;28;20073;-73
2022/09/10 07:38:37;;;;;;;34.75;20.10;;;16.60;99.90;;;;;;4992141;28;20046;-72
2022/09/10 07:41:05;;;;;;;33.10;20.05;;;16.60;99.90;;;;;;4968095;28;20137;-73
2022/09/10 07:43:31;;;;;;;35.85;20.50;;;16.60;99.90;;;;;;4998359;28;20466;-73
2022/09/10 07:45:57;;;;;;;35.72;20.95;;;16.70;99.90;;;;;;4991472;28;20117;-72
2022/09/10 07:48:24;;;;;;;35.05;20.02;;;16.70;99.90;;;;;;5007900;28;20050;-73
2022/09/10 07:50:50;;;;;;;29.60;18.30;;;16.70;99.90;;;;;;5010301;28;20042;-73
2022/09/10 07:53:16;;;;;;;34.70;19.58;;;16.70;99.90;;;;;;4986033;28;20180;-74
2022/09/10 07:55:42;;;;;;;28.70;19.38;;;16.70;99.90;;;;;;5010626;28;20386;-73
2022/09/10 07:58:09;;;;;;;28.83;18.83;;;16.70;99.90;;;;;;5001033;28;20544;-73
2022/09/10 08:00:35;;;;;;;32.97;19.83;;;16.70;99.90;;;;;;4993601;28;20048;-72
2022/09/10 08:03:02;;;;;;;31.67;19.98;;;16.90;99.90;;;;;;5009549;28;20112;-73
2022/09/10 08:05:28;;;;;;;29.52;17.73;;;16.90;99.90;;;;;;4977996;28;20088;-73
2022/09/10 08:07:54;;;;;;;32.15;19.42;;;16.80;99.90;;;;;;4978290;28;20052;-73
2022/09/10 08:10:21;;;;;;;33.10;18.63;;;16.80;99.90;;;;;;4993119;28;20073;-73
2022/09/10 08:12:47;;;;;;;33.53;19.60;;;16.90;99.90;;;;;;5008244;28;20139;-73
2022/09/10 08:15:13;;;;;;;29.13;19.60;;;17.00;99.90;;;;;;5008630;28;20478;-72
2022/09/10 08:17:39;;;;;;;32.03;19.20;;;17.10;99.90;;;;;;5009019;28;20490;-72
2022/09/10 08:20:07;;;;;;;26.92;18.35;;;17.30;99.90;;;;;;4992120;28;20053;-73
2022/09/10 08:22:34;;;;;;;31.25;17.75;;;17.40;99.90;;;;;;5011108;28;20049;-73
2022/09/10 08:25:01;;;;;;;29.40;17.38;;;17.30;99.90;;;;;;5008849;28;20387;-73
2022/09/10 08:27:27;;;;;;;27.40;17.33;;;17.30;99.90;;;;;;5009175;28;20054;-73
2022/09/10 08:29:53;;;;;;;29.27;17.45;;;17.30;99.90;;;;;;5009283;28;20045;-73
2022/09/10 08:32:20;;;;;;;30.42;17.92;;;17.30;99.90;;;;;;5009636;28;20033;-73
2022/09/10 08:34:47;;;;;;;26.60;16.65;;;17.30;99.90;;;;;;5013590;28;20160;-72
2022/09/10 08:37:13;;;;;;;24.30;15.50;;;17.30;99.90;;;;;;5013055;28;20398;-72
2022/09/10 08:39:39;;;;;;;24.75;16.40;;;17.40;99.90;;;;;;5014470;28;20064;-72
2022/09/10 08:42:38;;;;;;;25.83;16.17;;;17.50;99.90;;;;;;4979156;28;20042;-73
2022/09/10 08:45:20;;;;;;;280.02;31.52;;;17.60;99.90;;;;;;4994760;28;20038;-72
2022/09/10 08:47:54;;;;;;;22.98;14.85;;;17.70;99.90;;;;;;5013108;28;20108;-73
2022/09/10 08:50:29;;;;;;;41.13;15.93;;;17.90;99.90;;;;;;5013015;28;20054;-73
2022/09/10 08:53:04;;;;;;;22.02;14.60;;;17.90;99.90;;;;;;5012912;28;20052;-73
2022/09/10 08:55:33;;;;;;;21.92;14.98;;;18.10;99.90;;;;;;4994652;28;20132;-73
2022/09/10 08:58:17;;;;;;;22.70;15.20;;;18.20;99.90;;;;;;5030764;28;20050;-73
2022/09/10 09:00:45;;;;;;;21.50;14.98;;;18.20;99.90;;;;;;4993342;28;20104;-72
2022/09/10 09:03:33;;;;;;;25.40;15.90;;;18.30;99.90;;;;;;5012390;28;20080;-73
2022/09/10 09:06:01;;;;;;;22.40;14.65;;;18.50;99.90;;;;;;4994623;28;20482;-73
2022/09/10 09:08:31;;;;;;;23.38;14.90;;;18.60;99.90;;;;;;4980230;28;20034;-73
2022/09/10 09:11:31;;;;;;;24.73;15.02;;;18.60;99.90;;;;;;5010040;28;20054;-72
2022/09/10 09:14:24;;;;;;;23.08;14.25;;;18.60;99.90;;;;;;5011072;28;20082;-72
2022/09/10 09:17:32;;;;;;;25.15;15.10;;;18.50;99.90;;;;;;5014483;28;20124;-72
2022/09/10 09:20:43;;;;;;;22.25;15.00;;;18.60;99.90;;;;;;4995617;28;20091;-73
2022/09/10 09:23:20;;;;;;;26.85;14.98;;;18.50;99.90;;;;;;5024257;28;20128;-73
2022/09/10 09:25:55;;;;;;;21.98;14.27;;;18.30;99.90;;;;;;5011491;28;20046;-74
2022/09/10 09:28:47;;;;;;;23.00;15.32;;;18.20;99.90;;;;;;5026577;28;20129;-73
2022/09/10 09:31:36;;;;;;;24.55;15.93;;;18.00;99.90;;;;;;4995158;28;20042;-73
2022/09/10 09:34:09;;;;;;;25.45;15.07;;;17.80;99.90;;;;;;4995449;28;20041;-74
2022/09/10 09:36:41;;;;;;;29.25;15.68;;;17.90;99.90;;;;;;5013067;28;20140;-74
2022/09/10 09:39:41;;;;;;;20.58;14.43;;;17.90;99.90;;;;;;4995203;28;20072;-73
2022/09/10 09:42:22;;;;;;;20.52;13.90;;;17.90;99.90;;;;;;5009298;28;20054;-73
2022/09/10 09:44:58;;;;;;;22.35;14.45;;;18.00;99.90;;;;;;5001577;28;20053;-72
2022/09/10 09:47:23;;;;;;;22.13;14.02;;;18.00;99.90;;;;;;4991273;28;20054;-73
2022/09/10 09:49:50;;;;;;;21.98;14.20;;;18.00;99.90;;;;;;5012090;28;20042;-73
2022/09/10 09:52:30;;;;;;;21.20;14.88;;;18.10;99.90;;;;;;4992555;28;20045;-74
2022/09/10 09:55:01;;;;;;;21.75;14.10;;;18.10;99.90;;;;;;4992416;28;20049;-73
2022/09/10 09:57:28;;;;;;;20.08;13.45;;;18.20;99.90;;;;;;5026505;28;20069;-73
2022/09/10 09:59:54;;;;;;;20.45;13.27;;;18.30;99.90;;;;;;5013637;28;20112;-73
2022/09/10 10:02:23;;;;;;;24.45;14.90;;;18.40;99.90;;;;;;4990292;28;20041;-72
2022/09/10 10:05:05;;;;;;;22.70;13.68;;;18.40;99.90;;;;;;5009130;28;20498;-72
2022/09/10 10:07:35;;;;;;;21.20;15.27;;;18.40;99.90;;;;;;5008707;28;20034;-73
2022/09/10 10:10:06;;;;;;;20.35;13.15;;;18.50;99.90;;;;;;4995025;28;20151;-73
2022/09/10 10:12:32;;;;;;;23.05;13.70;;;18.50;99.90;;;;;;5011557;28;20046;-73
2022/09/10 10:15:00;;;;;;;22.42;14.55;;;18.70;99.90;;;;;;5011461;28;20513;-72
2022/09/10 10:17:37;;;;;;;18.98;13.00;;;18.90;99.90;;;;;;5012440;28;20136;-73
2022/09/10 10:20:15;;;;;;;20.15;13.27;;;18.90;99.90;;;;;;5008525;28;20180;-73
2022/09/10 10:22:42;;;;;;;21.35;13.23;;;18.90;99.90;;;;;;5006497;28;20068;-73
2022/09/10 10:25:30;;;;;;;20.20;13.00;;;19.00;99.90;;;;;;5004107;28;20046;-72
2022/09/10 10:27:56;;;;;;;20.58;13.77;;;19.00;99.90;;;;;;5011267;28;20042;-73
2022/09/10 10:30:23;;;;;;;19.38;12.35;;;19.00;99.90;;;;;;4991261;28;20487;-72
2022/09/10 10:32:56;;;;;;;17.55;11.98;;;19.00;99.90;;;;;;4973430;28;21891;-73
2022/09/10 10:35:46;;;;;;;16.65;12.10;;;19.10;99.90;;;;;;5024972;28;20394;-73
2022/09/10 10:38:28;;;;;;;19.02;12.90;;;19.10;99.90;;;;;;5004340;28;20053;-73
2022/09/10 10:41:32;;;;;;;20.45;13.90;;;19.10;99.90;;;;;;5011927;28;20045;-73
2022/09/10 10:44:06;;;;;;;19.95;12.57;;;19.20;99.90;;;;;;5025393;28;20136;-73
2022/09/10 10:46:43;;;;;;;17.48;11.15;;;19.30;99.90;;;;;;5010550;28;20064;-73
2022/09/10 10:49:25;;;;;;;17.33;12.50;;;19.10;99.90;;;;;;5011316;28;20038;-73
2022/09/10 10:52:06;;;;;;;19.88;12.35;;;19.20;99.90;;;;;;5008745;28;20052;-72
2022/09/10 10:54:44;;;;;;;15.05;11.35;;;19.30;99.90;;;;;;5011518;28;20034;-72
2022/09/10 10:57:18;;;;;;;18.33;11.85;;;19.30;99.90;;;;;;5026055;28;20056;-72
2022/09/10 11:00:00;;;;;;;19.83;12.60;;;19.30;99.90;;;;;;5012723;28;20077;-71
2022/09/10 11:02:49;;;;;;;17.20;12.07;;;19.30;99.90;;;;;;4991047;28;20038;-72
2022/09/10 11:05:30;;;;;;;20.80;13.10;;;19.30;99.90;;;;;;4989523;28;20512;-73
2022/09/10 11:08:00;;;;;;;;;;;19.40;99.90;;;;;;5010609;28;20081;-72
2022/09/10 11:10:29;;;;;;;21.15;12.32;;;19.50;99.90;;;;;;5009623;28;19918;-72
2022/09/10 11:13:30;;;;;;;17.92;12.15;;;19.60;99.90;;;;;;4995236;28;20505;-73
2022/09/10 11:16:04;;;;;;;17.67;12.20;;;19.80;99.90;;;;;;5008957;28;20154;-73
2022/09/10 11:18:41;;;;;;;16.33;12.05;;;20.10;99.90;;;;;;4993297;28;20461;-73
2022/09/10 11:21:28;;;;;;;14.70;11.52;;;20.40;99.90;;;;;;5003572;28;20037;-73
2022/09/10 11:24:11;;;;;;;14.15;10.38;;;20.60;99.90;;;;;;5021563;28;20475;-72
2022/09/10 11:27:01;;;;;;;15.45;11.10;;;20.90;99.90;;;;;;5008448;28;20144;-73
2022/09/10 11:29:47;;;;;;;13.40;10.13;;;21.10;99.90;;;;;;5007091;28;20406;-72
2022/09/10 11:32:21;;;;;;;12.77;10.23;;;21.40;99.90;;;;;;4995885;28;20382;-73
2022/09/10 11:34:47;;;;;;;12.52;10.35;;;21.60;99.90;;;;;;5012211;28;20434;-73
2022/09/10 11:37:19;;;;;;;15.02;10.70;;;21.70;99.90;;;;;;4991753;28;20057;-73
2022/09/10 11:39:51;;;;;;;13.48;10.68;;;21.90;99.90;;;;;;5006090;28;20034;-73
2022/09/10 11:42:38;;;;;;;14.05;10.85;;;21.90;99.90;;;;;;5009190;28;20136;-72
2022/09/10 11:45:18;;;;;;;15.23;10.85;;;22.10;99.90;;;;;;4995053;28;20281;-73
2022/09/10 11:47:55;;;;;;;15.55;11.05;;;22.20;99.90;;;;;;5009257;28;20133;-72
2022/09/10 11:50:27;;;;;;;14.13;10.27;;;22.20;99.90;;;;;;4995142;28;20037;-73
2022/09/10 11:52:55;;;;;;;14.23;11.10;;;22.20;99.90;;;;;;5003628;28;20050;-72
2022/09/10 11:55:44;;;;;;;11.57;9.90;;;22.30;99.90;;;;;;5001494;28;20049;-72
2022/09/10 11:58:14;;;;;;;12.82;9.63;;;22.30;99.90;;;;;;5008285;28;20439;-72
2022/09/10 12:00:53;;;;;;;12.68;11.00;;;22.50;99.90;;;;;;5004727;28;20046;-72
2022/09/10 12:03:31;;;;;;;14.00;11.00;;;22.70;99.90;;;;;;5010579;28;20038;-72
2022/09/10 12:06:26;;;;;;;14.63;9.98;;;23.20;99.90;;;;;;5014611;28;20060;-72
2022/09/10 12:09:01;;;;;;;12.77;9.68;;;23.30;99.90;;;;;;5001189;28;20062;-72
2022/09/10 12:11:34;;;;;;;18.08;11.02;;;23.60;99.90;;;;;;4996025;28;20040;-72
2022/09/10 12:14:13;;;;;;;13.55;9.82;;;24.00;99.90;;;;;;5018587;28;20145;-72
2022/09/10 12:16:46;;;;;;;12.25;9.52;;;24.10;99.90;;;;;;5018507;28;20041;-72
2022/09/10 12:19:28;;;;;;;11.38;9.65;;;24.40;99.90;;;;;;5001070;28;20136;-73
2022/09/10 12:22:02;;;;;;;12.82;10.02;;;24.40;99.90;;;;;;5017968;28;20488;-72
2022/09/10 12:24:32;;;;;;;11.05;9.85;;;24.40;99.90;;;;;;5001284;28;20511;-72
2022/09/10 12:27:04;;;;;;;12.77;9.90;;;24.50;99.90;;;;;;5018302;28;20125;-73
2022/09/10 12:29:35;;;;;;;13.93;10.35;;;24.40;99.90;;;;;;5015208;28;20049;-73
2022/09/10 12:32:08;;;;;;;11.85;9.70;;;24.30;99.90;;;;;;5015835;28;20104;-72
2022/09/10 12:34:35;;;;;;;12.45;10.38;;;24.20;99.90;;;;;;5018367;28;20057;-72
2022/09/10 12:37:01;;;;;;;11.88;10.27;;;24.10;99.90;;;;;;5001680;28;20053;-74
2022/09/10 12:39:27;;;;;;;12.10;9.95;;;24.00;99.90;;;;;;4998805;28;20041;-73
2022/09/10 12:41:56;;;;;;;11.82;9.82;;;24.00;99.90;;;;;;4999664;28;20052;-71
2022/09/10 12:44:35;;;;;;;12.32;9.38;;;23.90;99.90;;;;;;5001806;28;20572;-72
2022/09/10 12:47:15;;;;;;;13.15;9.75;;;23.80;99.90;;;;;;5018316;28;20046;-72
2022/09/10 12:49:48;;;;;;;12.63;10.15;;;23.70;99.90;;;;;;5013653;28;20486;-72